createdAt,value
2019-04-16T00:01:53.741Z,9.45
2019-04-16T00:03:56.793Z,9.25
2019-04-16T00:06:02.670Z,9.03
2019-04-16T00:08:27.365Z,8.48
2019-04-16T00:10:39.163Z,10.13
2019-04-16T00:12:59.171Z,10.88
2019-04-16T00:15:01.397Z,9.70
2019-04-16T00:17:02.737Z,10.03
2019-04-16T00:19:06.352Z,9.30
2019-04-16T00:21:14.641Z,8.80
2019-04-16T00:23:20.224Z,9.35
2019-04-16T00:25:21.633Z,8.68
2019-04-16T00:27:22.781Z,8.73
2019-04-16T00:29:24.317Z,8.78
2019-04-16T00:31:25.518Z,9.98
2019-04-16T00:33:26.652Z,9.55
2019-04-16T00:35:27.829Z,10.58
2019-04-16T00:37:28.969Z,9.83
2019-04-16T00:39:30.118Z,10.30
2019-04-16T00:41:31.274Z,10.05
2019-04-16T00:43:32.411Z,10.72
2019-04-16T00:45:33.567Z,9.93
2019-04-16T00:47:34.700Z,10.15
2019-04-16T00:49:37.905Z,9.35
2019-04-16T00:51:39.321Z,9.80
2019-04-16T00:53:40.445Z,10.32
2019-04-16T00:55:42.325Z,9.20
2019-04-16T00:57:48.433Z,10.98
2019-04-16T00:59:47.686Z,10.85
2019-04-16T01:01:48.912Z,10.10
2019-04-16T01:03:50.121Z,9.95
2019-04-16T01:05:51.288Z,9.83
2019-04-16T01:07:52.724Z,8.50
2019-04-16T01:09:53.988Z,9.28
2019-04-16T01:11:55.125Z,8.90
2019-04-16T01:13:56.339Z,9.95
2019-04-16T01:16:02.679Z,9.90
2019-04-16T01:18:00.964Z,9.93
2019-04-16T01:20:05.406Z,9.40
2019-04-16T01:22:06.949Z,10.00
2019-04-16T01:24:08.089Z,8.68
2019-04-16T01:26:09.501Z,8.95
2019-04-16T01:28:29.448Z,9.35
2019-04-16T01:30:36.618Z,8.83
2019-04-16T01:32:45.625Z,8.98
2019-04-16T01:34:48.750Z,9.48
2019-04-16T01:37:08.705Z,10.65
2019-04-16T01:39:17.804Z,9.08
2019-04-16T01:41:21.683Z,9.08
2019-04-16T01:43:20.185Z,8.80
2019-04-16T01:45:21.330Z,9.40
2019-04-16T01:47:22.790Z,8.25
2019-04-16T01:49:23.934Z,8.55
2019-04-16T01:51:25.085Z,9.20
2019-04-16T01:53:26.234Z,9.60
2019-04-16T01:55:27.386Z,6.30
2019-04-16T01:57:30.742Z,7.03
2019-04-16T01:59:35.629Z,8.80
2019-04-16T02:01:34.657Z,9.60
2019-04-16T02:03:36.463Z,8.98
2019-04-16T02:05:37.851Z,9.98
2019-04-16T02:07:39.008Z,10.25
2019-04-16T02:09:40.461Z,6.25
2019-04-16T02:11:42.174Z,9.33
2019-04-16T02:13:46.266Z,9.13
2019-04-16T02:15:46.902Z,8.43
2019-04-16T02:17:48.069Z,7.05
2019-04-16T02:19:49.298Z,8.78
2019-04-16T02:21:50.453Z,8.45
2019-04-16T02:23:51.684Z,8.83
2019-04-16T02:25:53.245Z,9.18
2019-04-16T02:27:56.985Z,9.10
2019-04-16T02:29:58.606Z,8.48
2019-04-16T02:32:01.880Z,8.03
2019-04-16T02:34:03.220Z,8.68
2019-04-16T02:36:04.493Z,8.33
2019-04-16T02:38:11.139Z,9.10
2019-04-16T02:40:17.057Z,9.05
2019-04-16T02:42:13.130Z,8.83
2019-04-16T02:46:17.279Z,8.33
2019-04-16T02:48:18.441Z,8.78
2019-04-16T02:50:21.504Z,7.97
2019-04-16T02:52:24.554Z,8.05
2019-04-16T02:54:36.208Z,8.83
2019-04-16T02:56:57.398Z,8.83
2019-04-16T02:59:13.595Z,8.70
2019-04-16T03:01:20.869Z,8.93
2019-04-16T03:03:27.262Z,7.90
2019-04-16T03:05:30.670Z,8.78
2019-04-16T03:07:32.783Z,8.60
2019-04-16T03:09:34.578Z,8.78
2019-04-16T03:11:35.835Z,6.60
2019-04-16T03:13:37.382Z,8.68
2019-04-16T03:17:47.748Z,7.87
2019-04-16T03:19:53.955Z,8.48
2019-04-16T03:21:55.767Z,7.80
2019-04-16T03:23:57.109Z,7.85
2019-04-16T03:25:58.581Z,8.25
2019-04-16T03:27:59.950Z,7.05
2019-04-16T03:30:03.485Z,7.15
2019-04-16T03:32:04.907Z,7.78
2019-04-16T03:34:06.495Z,8.75
2019-04-16T03:38:08.826Z,7.78
2019-04-16T03:40:17.140Z,7.58
2019-04-16T03:42:13.285Z,7.42
2019-04-16T03:44:14.417Z,7.35
2019-04-16T03:46:15.815Z,7.72
2019-04-16T03:48:17.025Z,8.45
2019-04-16T03:50:18.186Z,6.90
2019-04-16T03:52:19.409Z,7.75
2019-04-16T03:54:22.430Z,5.42
2019-04-16T03:56:23.605Z,7.37
2019-04-16T03:58:24.755Z,7.85
2019-04-16T04:00:44.155Z,7.08
2019-04-16T04:02:44.071Z,7.25
2019-04-16T04:04:45.301Z,7.45
2019-04-16T04:06:46.535Z,7.80
2019-04-16T04:08:48.967Z,7.85
2019-04-16T04:10:50.832Z,7.75
2019-04-16T04:12:52.227Z,7.87
2019-04-16T04:14:54.291Z,6.75
2019-04-16T04:16:56.422Z,6.72
2019-04-16T04:18:57.621Z,7.55
2019-04-16T04:20:58.828Z,8.23
2019-04-16T04:22:59.991Z,5.65
2019-04-16T04:25:04.506Z,7.67
2019-04-16T04:27:04.279Z,7.60
2019-04-16T04:29:06.275Z,7.45
2019-04-16T04:31:07.778Z,7.45
2019-04-16T04:33:10.215Z,5.67
2019-04-16T04:35:11.778Z,7.60
2019-04-16T04:37:13.134Z,7.72
2019-04-16T04:39:15.679Z,8.40
2019-04-16T04:41:19.884Z,7.70
2019-04-16T04:43:20.319Z,7.35
2019-04-16T04:45:21.589Z,7.30
2019-04-16T04:47:22.842Z,7.33
2019-04-16T04:49:23.990Z,7.92
2019-04-16T04:51:25.137Z,7.30
2019-04-16T04:53:26.361Z,7.65
2019-04-16T04:55:27.518Z,7.60
2019-04-16T04:57:31.174Z,8.00
2019-04-16T04:59:36.521Z,7.50
2019-04-16T05:01:35.154Z,7.45
2019-04-16T05:03:44.445Z,8.03
2019-04-16T05:05:53.316Z,8.53
2019-04-16T05:07:59.650Z,7.80
2019-04-16T05:09:57.963Z,7.00
2019-04-16T05:11:59.451Z,6.97
2019-04-16T05:14:00.859Z,7.30
2019-04-16T05:16:02.796Z,7.58
2019-04-16T05:18:05.805Z,7.30
2019-04-16T05:20:07.293Z,7.90
2019-04-16T05:22:08.430Z,7.10
2019-04-16T05:24:09.872Z,7.95
2019-04-16T05:26:11.268Z,6.50
2019-04-16T05:28:13.263Z,7.62
2019-04-16T05:30:20.440Z,7.72
2019-04-16T05:32:17.986Z,6.85
2019-04-16T05:34:19.150Z,7.33
2019-04-16T05:36:21.381Z,7.03
2019-04-16T05:38:24.422Z,7.80
2019-04-16T05:40:28.071Z,8.33
2019-04-16T05:42:29.111Z,7.60
2019-04-16T05:44:33.178Z,7.40
2019-04-16T05:46:33.425Z,7.72
2019-04-16T05:48:34.835Z,7.28
2019-04-16T05:50:35.986Z,7.60
2019-04-16T05:52:37.123Z,7.42
2019-04-16T05:54:55.013Z,7.90
2019-04-16T05:57:13.283Z,7.45
2019-04-16T05:59:14.501Z,7.95
2019-04-16T06:01:29.477Z,8.35
2019-04-16T06:03:30.803Z,8.25
2019-04-16T06:05:32.082Z,7.45
2019-04-16T06:07:37.743Z,7.80
2019-04-16T06:09:36.570Z,7.97
2019-04-16T06:11:37.821Z,8.18
2019-04-16T06:13:49.434Z,8.20
2019-04-16T06:15:56.457Z,8.45
2019-04-16T06:18:08.174Z,7.47
2019-04-16T06:20:23.538Z,8.33
2019-04-16T06:22:32.206Z,7.58
2019-04-16T06:24:41.317Z,7.87
2019-04-16T06:26:47.414Z,7.85
2019-04-16T06:28:55.043Z,7.67
2019-04-16T06:31:10.064Z,7.67
2019-04-16T06:33:14.283Z,7.55
2019-04-16T06:35:43.068Z,7.25
2019-04-16T06:37:39.293Z,7.72
2019-04-16T06:39:42.483Z,7.42
2019-04-16T06:41:48.386Z,7.50
2019-04-16T06:43:50.242Z,7.28
2019-04-16T06:46:01.865Z,7.58
2019-04-16T06:48:04.794Z,8.25
2019-04-16T06:50:32.279Z,8.40
2019-04-16T06:52:29.304Z,8.10
2019-04-16T06:54:38.076Z,7.87
2019-04-16T06:56:58.997Z,8.88
2019-04-16T06:59:02.286Z,8.33
2019-04-16T07:01:07.756Z,8.08
2019-04-16T07:03:16.649Z,8.50
2019-04-16T07:05:19.865Z,8.15
2019-04-16T07:07:40.272Z,7.85
2019-04-16T07:09:45.904Z,5.65
2019-04-16T07:11:54.587Z,7.15
2019-04-16T07:13:52.397Z,8.40
2019-04-16T07:15:56.948Z,8.28
2019-04-16T07:17:56.629Z,8.05
2019-04-16T07:19:57.846Z,8.30
2019-04-16T07:21:59.142Z,8.78
2019-04-16T07:24:00.189Z,7.80
2019-04-16T07:26:03.575Z,8.03
2019-04-16T07:28:06.287Z,7.75
2019-04-16T07:30:12.701Z,8.30
2019-04-16T07:32:16.078Z,8.45
2019-04-16T07:34:35.814Z,8.05
2019-04-16T07:36:47.704Z,8.30
2019-04-16T07:41:17.114Z,7.50
2019-04-16T07:43:31.048Z,8.55
2019-04-16T07:45:47.538Z,8.10
2019-04-16T07:48:06.423Z,8.33
2019-04-16T07:50:10.232Z,8.10
2019-04-16T07:52:13.176Z,9.05
2019-04-16T07:54:34.400Z,8.95
2019-04-16T07:56:36.444Z,8.63
2019-04-16T07:58:37.581Z,8.70
2019-04-16T08:00:41.321Z,9.05
2019-04-16T08:02:41.578Z,7.95
2019-04-16T08:04:42.613Z,8.43
2019-04-16T08:06:46.432Z,7.17
2019-04-16T08:08:46.926Z,8.48
2019-04-16T08:10:47.975Z,8.78
2019-04-16T08:12:51.278Z,8.93
2019-04-16T08:14:52.563Z,8.83
2019-04-16T08:16:53.606Z,8.40
2019-04-16T08:18:54.655Z,9.15
2019-04-16T08:21:02.083Z,9.33
2019-04-16T08:23:00.787Z,9.30
2019-04-16T08:25:04.257Z,8.90
2019-04-16T08:27:05.455Z,8.95
2019-04-16T08:29:06.839Z,8.38
2019-04-16T08:31:12.188Z,8.40
2019-04-16T08:33:12.751Z,9.18
2019-04-16T08:35:14.388Z,9.10
2019-04-16T08:39:16.649Z,9.20
2019-04-16T08:41:21.374Z,9.50
2019-04-16T08:43:20.629Z,9.15
2019-04-16T08:45:21.663Z,9.43
2019-04-16T08:47:22.719Z,9.15
2019-04-16T08:49:23.745Z,9.33
2019-04-16T08:51:30.981Z,8.40
2019-04-16T08:53:27.769Z,9.98
2019-04-16T08:55:29.083Z,8.98
2019-04-16T08:57:32.185Z,8.75
2019-04-16T08:59:33.112Z,8.98
2019-04-16T09:01:34.755Z,9.48
2019-04-16T09:05:41.294Z,9.13
2019-04-16T09:07:39.915Z,9.28
2019-04-16T09:09:42.937Z,9.75
2019-04-16T09:11:44.141Z,8.88
2019-04-16T09:13:49.993Z,9.55
2019-04-16T09:15:51.066Z,9.80
2019-04-16T09:17:54.018Z,10.63
2019-04-16T09:19:57.205Z,9.73
2019-04-16T09:21:58.473Z,9.35
2019-04-16T09:24:16.859Z,9.55
2019-04-16T09:26:28.497Z,10.40
2019-04-16T09:28:37.529Z,9.70
2019-04-16T09:30:40.475Z,8.88
2019-04-16T09:32:49.291Z,8.35
2019-04-16T09:35:10.994Z,9.43
2019-04-16T09:37:12.029Z,9.43
2019-04-16T09:39:29.911Z,9.60
2019-04-16T09:41:32.853Z,9.38
2019-04-16T09:43:41.599Z,9.75
2019-04-16T09:45:42.635Z,9.45
2019-04-16T09:47:43.688Z,10.25
2019-04-16T09:49:44.726Z,9.40
2019-04-16T09:51:45.781Z,9.65
2019-04-16T09:53:47.066Z,9.63
2019-04-16T09:55:50.571Z,9.25
2019-04-16T09:57:51.037Z,10.32
2019-04-16T09:59:54.238Z,10.35
2019-04-16T10:01:57.186Z,10.10
2019-04-16T10:03:59.121Z,9.95
2019-04-16T10:06:00.474Z,9.85
2019-04-16T10:08:01.793Z,10.65
2019-04-16T10:10:03.726Z,10.98
2019-04-16T10:12:07.712Z,10.65
2019-04-16T10:14:07.949Z,10.55
2019-04-16T10:16:09.448Z,11.30
2019-04-16T10:18:10.490Z,9.98
2019-04-16T10:20:11.526Z,11.03
2019-04-16T10:22:12.662Z,8.45
2019-04-16T10:24:15.733Z,10.50
2019-04-16T10:26:17.327Z,11.10
2019-04-16T10:30:23.435Z,11.30
2019-04-16T10:32:25.986Z,11.70
2019-04-16T10:34:27.040Z,11.40
2019-04-16T10:36:28.210Z,11.65
2019-04-16T10:38:33.805Z,11.43
2019-04-16T10:40:36.856Z,11.30
2019-04-16T10:42:56.103Z,11.45
2019-04-16T10:45:04.819Z,11.55
2019-04-16T10:47:16.779Z,11.10
2019-04-16T10:49:27.380Z,11.15
2019-04-16T10:51:41.930Z,10.95
2019-04-16T10:53:45.151Z,10.85
2019-04-16T10:55:57.669Z,11.73
2019-04-16T10:58:00.637Z,11.57
2019-04-16T11:00:06.588Z,11.30
2019-04-16T11:02:28.637Z,12.58
2019-04-16T11:04:33.486Z,11.70
2019-04-16T11:06:36.760Z,11.33
2019-04-16T11:08:37.906Z,11.68
2019-04-16T11:10:39.508Z,12.25
2019-04-16T11:12:40.893Z,10.32
2019-04-16T11:14:42.204Z,12.07
2019-04-16T11:16:45.218Z,12.37
2019-04-16T11:18:46.394Z,11.43
2019-04-16T11:20:47.533Z,12.33
2019-04-16T11:22:48.695Z,12.15
2019-04-16T11:24:49.836Z,12.30
2019-04-16T11:26:50.958Z,11.50
2019-04-16T11:28:52.033Z,11.35
2019-04-16T11:30:55.049Z,11.25
2019-04-16T11:32:56.503Z,12.98
2019-04-16T11:36:59.007Z,12.78
2019-04-16T11:39:00.079Z,12.47
2019-04-16T11:41:01.485Z,11.80
2019-04-16T11:43:03.157Z,12.53
2019-04-16T11:45:05.048Z,13.62
2019-04-16T11:47:06.625Z,12.55
2019-04-16T15:30:34.030Z,17.07
2019-04-16T15:32:43.328Z,17.30
2019-04-16T15:34:47.040Z,19.02
2019-04-16T15:36:54.923Z,18.80
2019-04-16T15:39:02.876Z,18.45
2019-04-16T15:41:13.371Z,17.30
2019-04-16T15:43:35.019Z,14.23
2019-04-16T15:46:12.892Z,16.77
2019-04-16T15:48:28.672Z,17.85
2019-04-16T15:50:43.988Z,16.10
2019-04-16T15:52:47.517Z,15.15
2019-04-16T15:54:51.091Z,16.77
2019-04-16T15:57:11.045Z,17.95
2019-04-16T15:59:23.606Z,16.73
2019-04-16T16:01:43.562Z,18.32
2019-04-16T16:04:04.362Z,17.67
2019-04-16T16:06:11.000Z,17.77
2019-04-16T16:08:29.814Z,17.12
2019-04-16T16:10:32.280Z,15.40
2019-04-16T16:12:33.977Z,17.05
2019-04-16T16:14:38.730Z,16.55
2019-04-16T16:16:41.922Z,15.83
2019-04-16T16:18:42.027Z,16.90
2019-04-16T16:20:43.595Z,18.92
2019-04-16T16:22:45.870Z,17.57
2019-04-16T16:24:47.409Z,15.65
2019-04-16T16:26:48.681Z,19.77
2019-04-16T16:28:49.946Z,17.73
2019-04-16T16:30:51.333Z,18.67
2019-04-16T16:32:52.660Z,17.25
2019-04-16T16:34:53.925Z,17.32
2019-04-16T16:36:55.201Z,17.15
2019-04-16T16:38:56.453Z,18.40
2019-04-16T16:40:57.742Z,17.45
2019-04-16T16:42:59.017Z,17.32
2019-04-16T16:45:01.608Z,16.65
2019-04-16T16:47:05.457Z,16.67
2019-04-16T16:49:06.718Z,16.30
2019-04-16T16:51:08.152Z,18.30
2019-04-16T16:53:20.978Z,17.30
2019-04-16T16:55:32.814Z,15.65
2019-04-16T16:57:36.034Z,17.27
2019-04-16T16:59:44.778Z,16.62
2019-04-16T17:01:47.956Z,17.57
2019-04-16T17:03:56.894Z,18.27
2019-04-16T17:05:59.439Z,17.75
2019-04-16T17:08:00.886Z,18.48
2019-04-16T17:10:05.062Z,18.32
2019-04-16T17:12:06.336Z,17.25
2019-04-16T17:14:07.799Z,16.80
2019-04-16T17:16:13.314Z,19.25
2019-04-16T17:18:12.339Z,17.85
2019-04-16T17:20:13.618Z,17.70
2019-04-16T17:22:17.490Z,18.92
2019-04-16T17:24:18.854Z,18.37
2019-04-16T17:26:20.246Z,17.40
2019-04-16T17:28:21.617Z,16.93
2019-04-16T17:30:22.894Z,17.60
2019-04-16T17:32:24.332Z,16.05
2019-04-16T17:34:25.672Z,18.52
2019-04-16T17:36:27.369Z,17.62
2019-04-16T17:38:28.709Z,18.20
2019-04-16T17:40:31.983Z,17.42
2019-04-16T17:42:37.716Z,16.97
2019-04-16T17:44:49.098Z,16.90
2019-04-16T17:46:55.802Z,17.40
2019-04-16T17:49:06.407Z,16.60
2019-04-16T17:51:15.481Z,17.70
2019-04-16T17:53:18.658Z,17.75
2019-04-16T17:55:24.387Z,16.60
2019-04-16T17:57:36.799Z,16.85
2019-04-16T17:59:40.097Z,17.17
2019-04-16T18:01:52.066Z,16.40
2019-04-16T18:03:55.286Z,17.35
2019-04-16T18:06:07.367Z,17.23
2019-04-16T18:08:29.335Z,16.93
2019-04-16T18:12:55.149Z,16.15
2019-04-16T18:15:13.576Z,16.52
2019-04-16T18:17:27.665Z,16.23
2019-04-16T18:19:47.430Z,17.25
2019-04-16T18:21:53.699Z,18.80
2019-04-16T18:23:56.917Z,15.85
2019-04-16T18:26:17.113Z,17.10
2019-04-16T18:28:20.579Z,17.17
2019-04-16T18:30:38.854Z,18.32
2019-04-16T18:32:59.045Z,17.35
2019-04-16T18:35:08.466Z,14.95
2019-04-16T18:37:30.033Z,16.40
2019-04-16T18:39:37.219Z,16.15
2019-04-16T18:41:41.430Z,17.20
2019-04-16T18:43:47.553Z,16.30
2019-04-16T18:45:52.295Z,16.95
2019-04-16T18:48:04.979Z,16.02
2019-04-16T18:50:04.890Z,15.80
2019-04-16T18:52:07.018Z,17.48
2019-04-16T18:54:08.662Z,16.35
2019-04-16T18:56:10.097Z,16.57
2019-04-16T18:58:11.373Z,17.35
2019-04-16T19:00:14.741Z,16.30
2019-04-16T19:02:16.020Z,16.70
2019-04-16T19:04:17.338Z,16.10
2019-04-16T19:06:26.702Z,17.23
2019-04-16T19:08:40.786Z,16.97
2019-04-16T19:10:31.233Z,16.10
2019-04-16T19:12:32.501Z,16.23
2019-04-16T19:14:36.559Z,16.23
2019-04-16T19:16:38.541Z,16.75
2019-04-16T19:18:39.813Z,17.80
2019-04-16T19:20:41.190Z,16.65
2019-04-16T19:22:42.485Z,18.02
2019-04-16T19:24:44.110Z,17.52
2019-04-16T19:26:45.899Z,16.70
2019-04-16T19:28:47.479Z,15.93
2019-04-16T19:32:50.565Z,17.32
2019-04-16T19:36:55.995Z,15.80
2019-04-16T19:38:59.409Z,17.00
2019-04-16T19:41:01.293Z,16.05
2019-04-16T19:43:03.612Z,16.67
2019-04-16T19:45:08.954Z,17.92
2019-04-16T19:47:09.775Z,17.05
2019-04-16T19:51:12.915Z,16.90
2019-04-16T19:55:17.155Z,15.95
2019-04-16T19:57:18.575Z,17.70
2019-04-16T19:59:19.849Z,16.50
2019-04-16T20:01:21.102Z,15.85
2019-04-16T20:03:22.599Z,17.00
2019-04-16T20:05:23.978Z,17.20
2019-04-16T20:07:25.245Z,16.00
2019-04-16T20:09:26.517Z,16.55
2019-04-16T20:11:27.783Z,17.55
2019-04-16T20:13:29.827Z,16.15
2019-04-16T20:15:31.313Z,16.57
2019-04-16T20:17:32.854Z,16.77
2019-04-16T20:19:36.282Z,17.62
2019-04-16T20:21:38.169Z,16.42
2019-04-16T20:23:39.592Z,17.57
2019-04-16T20:25:40.858Z,17.37
2019-04-16T20:27:42.308Z,16.52
2019-04-16T20:29:43.578Z,15.23
2019-04-16T20:31:45.104Z,17.05
2019-04-16T20:33:46.386Z,15.43
2019-04-16T20:35:50.450Z,17.20
2019-04-16T20:37:54.265Z,17.25
2019-04-16T20:39:55.952Z,16.45
2019-04-16T20:41:59.416Z,15.83
2019-04-16T20:44:00.397Z,15.95
2019-04-16T20:46:01.888Z,16.17
2019-04-16T20:48:03.474Z,15.35
2019-04-16T20:50:05.882Z,16.75
2019-04-16T20:52:07.157Z,16.50
2019-04-16T20:54:12.225Z,16.57
2019-04-16T20:56:13.643Z,16.30
2019-04-16T20:58:15.058Z,16.67
2019-04-16T21:00:22.489Z,17.25
2019-04-16T21:02:24.361Z,17.30
2019-04-16T21:04:25.893Z,16.02
2019-04-16T21:06:27.448Z,17.70
2019-04-16T21:10:35.447Z,16.05
2019-04-16T21:12:33.229Z,15.43
2019-04-16T21:14:34.838Z,15.30
2019-04-16T21:16:36.194Z,16.52
2019-04-16T21:18:37.528Z,16.12
2019-04-16T21:20:39.040Z,15.35
2019-04-16T21:22:40.406Z,15.98
2019-04-16T21:24:42.820Z,16.17
2019-04-16T21:26:44.078Z,15.65
2019-04-16T21:28:47.258Z,16.77
2019-04-16T21:30:50.429Z,17.62
2019-04-16T21:33:02.579Z,16.73
2019-04-16T21:35:09.642Z,15.43
2019-04-16T21:37:29.282Z,17.15
2019-04-16T21:39:32.458Z,14.23
2019-04-16T21:41:33.725Z,14.93
2019-04-16T21:43:35.691Z,16.17
2019-04-16T21:45:38.428Z,15.93
2019-04-16T21:47:39.701Z,15.88
2019-04-16T21:49:45.055Z,15.18
2019-04-16T21:52:02.594Z,17.02
2019-04-16T21:54:03.905Z,16.80
2019-04-16T21:56:08.196Z,17.12
2019-04-16T21:58:08.675Z,16.70
2019-04-16T22:02:17.345Z,16.97
2019-04-16T22:04:18.730Z,17.92
2019-04-16T22:06:20.991Z,17.70
2019-04-16T22:08:22.486Z,15.48
2019-04-16T22:10:23.785Z,16.25
2019-04-16T22:12:25.047Z,17.35
2019-04-16T22:14:26.576Z,17.02
2019-04-16T22:16:29.876Z,15.13
2019-04-16T22:18:31.265Z,15.35
2019-04-16T22:20:35.757Z,17.25
2019-04-16T22:22:35.734Z,17.05
2019-04-16T22:24:37.009Z,17.50
2019-04-16T22:26:38.550Z,18.07
2019-04-16T22:28:44.164Z,17.73
2019-04-16T22:30:43.322Z,17.50
2019-04-16T22:32:44.581Z,17.75
2019-04-16T22:34:45.921Z,18.12
2019-04-16T22:36:47.782Z,17.55
2019-04-16T22:38:50.969Z,17.42
2019-04-16T22:40:54.965Z,17.67
2019-04-16T22:43:07.052Z,18.05
2019-04-16T22:45:22.215Z,17.77
2019-04-16T22:47:28.416Z,18.12
2019-04-16T22:49:30.026Z,16.60
2019-04-16T22:51:31.664Z,16.07
2019-04-16T22:55:34.656Z,15.53
2019-04-16T22:57:36.329Z,16.85
2019-04-16T23:01:44.989Z,15.85
2019-04-16T23:04:14.873Z,16.90
2019-04-16T23:06:16.503Z,17.20
2019-04-16T23:08:19.181Z,18.10
2019-04-16T23:10:21.835Z,17.45
2019-04-16T23:12:27.232Z,16.80
2019-04-16T23:14:27.817Z,17.82
2019-04-16T23:16:29.254Z,17.75
2019-04-16T23:18:30.533Z,17.87
2019-04-16T23:20:36.114Z,18.07
2019-04-16T23:22:35.466Z,18.12
2019-04-16T23:24:36.746Z,17.82
2019-04-16T23:26:38.026Z,17.30
2019-04-16T23:28:39.690Z,17.02
2019-04-16T23:30:42.510Z,16.67
2019-04-16T23:32:44.035Z,14.85
2019-04-16T23:34:45.457Z,16.70
2019-04-16T23:36:48.699Z,17.98
2019-04-16T23:38:49.974Z,14.85
2019-04-16T23:40:51.247Z,16.17
2019-04-16T23:43:11.528Z,17.98
2019-04-16T23:45:14.713Z,17.35
2019-04-16T23:47:17.898Z,17.35
2019-04-16T23:49:33.151Z,17.87
2019-04-16T23:51:36.329Z,16.55
2019-04-16T23:53:51.481Z,16.52
2019-04-16T23:56:00.529Z,17.80
2019-04-16T23:58:09.352Z,17.12
